Terminal Aerodrome Forecast
Issued by NWS Lake Charles, LA

Home | Current Version | Previous Version | Text Only | Print | Product List | Glossary On
Versions: 1 2 3 4 5 6 7 8 9 10 11 12 13 14 15 16 17 18
752
FTUS44 KLCH 141734
TAFARA
TAF
KARA 141734Z 1418/1518 15016G20KT P6SM BKN050 BKN120
     FM142300 15012G18KT P6SM SCT020 BKN040
     FM150700 15009KT 5SM BR VCSH OVC015
     FM151000 16006KT 4SM BR VCSH OVC008 PROB30 1510/1514 3SM SHRA
     FM151400 19016G24KT P6SM VCSH SCT009 OVC015
      TEMPO 1514/1518 3SM SHRA BKN009 OVC015=

USA.gov is the U.S. government's official web portal to all federal, state and local government web resources and services.